Time;durP1;ratioP1;P1;durP2;ratioP2;P2;SDS_P1;SDS_P2;PMS_P1;PMS_P2;Temp;Humidity;BMP_temperature;BMP_pressure;BME280_temperature;BME280_humidity;BME280_pressure;Samples;Min_cycle;Max_cycle;Signal;HPM_P1;HPM_P2
2023/05/12 00:01:18;;;;;;;;;10.67;9.33;;;;;14.83;54.77;101215.13;4939179;28;45663;-76
2023/05/12 00:03:44;;;;;;;;;2.00;2.00;;;;;14.69;54.53;101193.47;4940052;28;45280;-76
2023/05/12 00:06:10;;;;;;;;;5.00;3.33;;;;;14.15;54.30;101099.19;4945644;28;45237;-75
2023/05/12 00:08:35;;;;;;;;;2.50;2.00;;;;;14.82;54.49;101208.09;4937467;28;45530;-75
2023/05/12 00:11:01;;;;;;;;;5.33;4.33;;;;;14.36;54.10;101139.75;4943687;28;45603;-77
2023/05/12 00:13:27;;;;;;;;;4.00;4.00;;;;;14.85;54.28;101218.50;4942042;28;45336;-77
2023/05/12 00:15:55;;;;;;;;;2.33;1.00;;;;;14.73;54.16;101198.34;4924540;28;45505;-77
2023/05/12 00:18:21;;;;;;;;;3.00;3.00;;;;;14.75;54.37;101215.09;4925893;28;45734;-77
2023/05/12 00:20:47;;;;;;;;;1.00;1.00;;;;;14.47;54.26;101174.31;4924664;28;47670;-76
2023/05/12 00:23:12;;;;;;;;;5.00;2.50;;;;;14.48;54.60;101169.78;4942356;28;45182;-76
2023/05/12 00:25:37;;;;;;;;;3.00;3.00;;;;;14.71;54.44;101208.38;4942494;28;45427;-75
2023/05/12 00:28:03;;;;;;;;;2.67;2.67;;;;;14.24;54.34;101115.13;4960499;28;45778;-75
2023/05/12 00:30:28;;;;;;;;;2.00;2.00;;;;;14.83;53.93;101217.81;4960290;28;46223;-75
2023/05/12 00:32:54;;;;;;;;;1.00;1.00;;;;;14.73;54.13;101202.84;4941664;28;46877;-75
2023/05/12 00:35:19;;;;;;;;;3.67;1.67;;;;;14.67;53.98;101195.47;4960466;28;45514;-76
2023/05/12 00:37:44;;;;;;;;;2.67;1.00;;;;;14.64;53.99;101206.50;4960719;28;45231;-76
2023/05/12 00:40:10;;;;;;;;;11.33;8.67;;;;;14.81;53.93;101218.94;4943909;28;47455;-76
2023/05/12 00:42:36;;;;;;;;;5.67;4.33;;;;;14.74;54.07;101208.06;4942655;28;45575;-76
2023/05/12 00:45:02;;;;;;;;;2.00;2.00;;;;;14.88;53.06;101217.31;4960415;28;45235;-76
2023/05/12 00:47:27;;;;;;;;;3.00;0.00;;;;;14.70;53.42;101193.31;4961825;28;45559;-75
2023/05/12 00:49:53;;;;;;;;;1.67;1.67;;;;;14.82;53.41;101220.66;4960909;28;45555;-76
2023/05/12 00:52:19;;;;;;;;;2.33;2.33;;;;;14.32;53.07;101139.25;4960466;28;45458;-75
2023/05/12 00:54:45;;;;;;;;;2.33;2.33;;;;;14.80;53.36;101217.28;4960378;28;45962;-76
2023/05/12 00:57:11;;;;;;;;;4.33;3.33;;;;;14.58;53.45;101187.38;4960321;28;45539;-77
2023/05/12 00:59:37;;;;;;;;;1.00;1.00;;;;;14.59;53.43;101204.28;4959847;28;46431;-76
2023/05/12 01:02:02;;;;;;;;;1.33;1.33;;;;;14.52;53.79;101192.53;4960182;28;45345;-77
2023/05/12 01:04:28;;;;;;;;;2.00;1.00;;;;;14.66;53.49;101209.88;4958930;28;45326;-76
2023/05/12 01:06:55;;;;;;;;;1.00;1.00;;;;;14.65;53.48;101214.38;4942776;28;45276;-76
2023/05/12 01:09:21;;;;;;;;;2.67;1.67;;;;;14.48;53.97;101191.19;4959855;28;45483;-76
2023/05/12 01:11:46;;;;;;;;;3.33;2.00;;;;;14.61;53.86;101210.31;4959582;28;45272;-76
2023/05/12 01:14:11;;;;;;;;;4.67;2.00;;;;;14.56;53.40;101188.56;4959521;28;45713;-76
2023/05/12 01:16:50;;;;;;;;;1.00;1.00;;;;;14.56;54.09;101216.16;4942189;28;45451;-76
2023/05/12 01:19:40;;;;;;;;;2.00;2.00;;;;;14.54;53.92;101209.28;4942172;28;47622;-75
2023/05/12 01:22:06;;;;;;;;;4.33;2.67;;;;;14.08;54.14;101157.81;4942201;28;46134;-77
2023/05/12 01:24:35;;;;;;;;;1.67;1.67;;;;;14.27;54.69;101191.53;4942306;28;45293;-76
2023/05/12 01:27:02;;;;;;;;;3.67;3.00;;;;;14.14;54.79;101175.91;4942249;28;45672;-76
2023/05/12 01:29:27;;;;;;;;;3.00;2.67;;;;;14.44;54.68;101211.25;4959489;28;48037;-77
2023/05/12 01:31:54;;;;;;;;;2.00;1.00;;;;;14.27;54.52;101173.66;4959656;28;45345;-76
2023/05/12 01:34:19;;;;;;;;;2.00;1.00;;;;;14.28;54.48;101171.81;4959849;28;45239;-77
2023/05/12 01:36:45;;;;;;;;;2.67;1.33;;;;;14.47;54.63;101190.34;4959759;28;45518;-76
2023/05/12 01:39:11;;;;;;;;;2.00;2.00;;;;;14.65;54.41;101214.38;4959403;28;46699;-77
2023/05/12 01:41:37;;;;;;;;;2.00;2.00;;;;;14.64;54.05;101190.44;4942028;28;45340;-76
2023/05/12 01:44:02;;;;;;;;;3.00;3.00;;;;;14.73;54.15;101217.09;4942231;28;45446;-77
2023/05/12 01:46:27;;;;;;;;;4.33;2.00;;;;;14.73;53.88;101211.72;4942354;28;45530;-77
2023/05/12 01:48:52;;;;;;;;;5.00;2.67;;;;;14.26;54.10;101134.53;4959976;28;46624;-76
2023/05/12 01:51:18;;;;;;;;;1.00;1.00;;;;;14.42;54.33;101162.38;4945301;28;50400;-75
2023/05/12 01:53:43;;;;;;;;;4.00;1.00;;;;;14.66;54.13;101191.97;4965663;28;45291;-76
2023/05/12 01:56:08;;;;;;;;;5.00;3.00;;;;;14.64;54.35;101185.09;4969251;28;47092;-76
2023/05/12 01:58:34;;;;;;;;;4.67;3.33;;;;;14.64;54.63;101202.00;4960936;28;46489;-75
2023/05/12 02:00:59;;;;;;;;;3.00;3.00;;;;;14.63;54.79;101199.47;4959356;28;45367;-76
2023/05/12 02:03:24;;;;;;;;;3.00;2.33;;;;;14.66;54.77;101207.19;4959533;28;45380;-77
2023/05/12 02:05:50;;;;;;;;;2.67;2.33;;;;;14.66;54.96;101202.66;4959224;28;45371;-76
2023/05/12 02:08:15;;;;;;;;;4.00;3.00;;;;;14.53;55.15;101196.91;4958922;28;45658;-76
2023/05/12 02:10:41;;;;;;;;;3.33;3.00;;;;;14.48;55.88;101202.72;4958681;28;45276;-75
2023/05/12 02:13:06;;;;;;;;;4.00;3.00;;;;;14.53;55.81;101210.28;4960170;28;45457;-77
2023/05/12 02:15:31;;;;;;;;;4.67;4.00;;;;;14.02;56.56;101147.75;4959530;28;45439;-76
2023/05/12 02:17:57;;;;;;;;;6.33;6.00;;;;;14.34;56.96;101199.75;4958774;28;45917;-76
2023/05/12 02:20:22;;;;;;;;;5.00;3.67;;;;;14.31;57.48;101212.44;4941459;28;45434;-77
2023/05/12 02:22:48;;;;;;;;;4.67;4.67;;;;;14.02;57.02;101155.78;4941524;28;45262;-77
2023/05/12 02:25:13;;;;;;;;;6.00;4.67;;;;;14.30;57.15;101194.72;4959010;28;45525;-76
2023/05/12 02:27:38;;;;;;;;;5.00;4.00;;;;;14.27;57.33;101186.19;4940615;28;48105;-75
2023/05/12 02:30:05;;;;;;;;;5.00;3.33;;;;;14.23;57.87;101196.38;4958252;28;45304;-76
2023/05/12 02:32:30;;;;;;;;;8.00;5.00;;;;;14.27;57.84;101216.44;4958913;28;45466;-77
2023/05/12 02:34:55;;;;;;;;;3.67;3.33;;;;;14.14;57.71;101177.72;4941350;28;45770;-77
2023/05/12 02:37:21;;;;;;;;;7.00;5.00;;;;;14.19;57.95;101203.00;4941108;28;48300;-76
2023/05/12 02:39:46;;;;;;;;;6.67;4.67;;;;;14.25;57.76;101201.56;4958913;28;45478;-75
2023/05/12 02:42:11;;;;;;;;;6.67;4.00;;;;;14.22;57.79;101207.22;4958695;28;45398;-76
2023/05/12 02:44:37;;;;;;;;;8.67;5.00;;;;;13.43;58.17;101082.50;4941792;28;45273;-77
2023/05/12 02:47:04;;;;;;;;;4.33;3.33;;;;;14.17;57.82;101196.97;4958288;28;62366;-76
2023/05/12 02:49:31;;;;;;;;;8.00;3.67;;;;;14.01;58.09;101178.13;4941342;28;45400;-76
2023/05/12 02:51:56;;;;;;;;;5.67;3.00;;;;;14.12;57.91;101190.41;4941146;28;45589;-76
2023/05/12 02:54:21;;;;;;;;;4.33;3.00;;;;;14.08;57.75;101187.22;4958454;28;45471;-75
2023/05/12 02:56:47;;;;;;;;;3.00;2.00;;;;;14.06;57.68;101197.22;4940621;28;48787;-75
2023/05/12 02:59:12;;;;;;;;;2.00;2.00;;;;;14.05;57.45;101190.22;4940701;28;45481;-75
2023/05/12 03:01:37;;;;;;;;;4.67;3.33;;;;;13.94;57.32;101179.75;4940927;28;45352;-76
2023/05/12 03:04:03;;;;;;;;;2.67;2.33;;;;;13.83;57.76;101169.31;4958699;28;45347;-76
2023/05/12 03:06:29;;;;;;;;;7.00;3.67;;;;;14.07;57.29;101209.59;4958142;28;47885;-76
2023/05/12 03:08:54;;;;;;;;;5.00;4.67;;;;;13.85;57.63;101164.66;4958126;28;45239;-76
2023/05/12 03:11:21;;;;;;;;;3.67;2.00;;;;;13.81;57.58;101157.91;4959301;28;45478;-76
2023/05/12 03:13:46;;;;;;;;;3.67;2.00;;;;;13.43;57.41;101097.69;4959153;28;45293;-76
2023/05/12 03:16:12;;;;;;;;;5.00;3.00;;;;;13.89;57.99;101184.72;4940604;28;47704;-76
2023/05/12 03:18:37;;;;;;;;;2.75;2.75;;;;;13.93;58.30;101192.28;4957815;28;45261;-77
2023/05/12 03:21:02;;;;;;;;;4.33;3.00;;;;;13.83;57.93;101174.66;4957813;28;51231;-76
2023/05/12 03:23:28;;;;;;;;;2.33;2.00;;;;;13.54;57.94;101124.97;4958262;28;45462;-76
2023/05/12 03:25:54;;;;;;;;;3.33;2.33;;;;;13.85;58.17;101176.19;4957964;28;45383;-77
2023/05/12 03:28:21;;;;;;;;;3.67;3.67;;;;;13.84;58.18;101171.00;4957907;28;45348;-76
2023/05/12 03:30:48;;;;;;;;;4.33;4.00;;;;;13.95;58.25;101194.78;4958326;28;45880;-77
2023/05/12 03:33:13;;;;;;;;;3.33;3.00;;;;;13.95;58.29;101184.09;4958340;28;45265;-77
2023/05/12 03:35:39;;;;;;;;;5.00;3.67;;;;;13.87;58.85;101187.56;4958071;28;45925;-77
2023/05/12 03:38:04;;;;;;;;;4.00;4.00;;;;;13.22;58.77;101095.31;4958500;28;45249;-77
2023/05/12 03:40:29;;;;;;;;;8.00;3.67;;;;;13.76;59.14;101182.44;4950843;28;45331;-76
2023/05/12 03:42:55;;;;;;;;;7.33;6.00;;;;;13.77;59.03;101181.44;4957478;28;45690;-75
2023/05/12 03:45:20;;;;;;;;;5.67;5.67;;;;;13.69;58.96;101176.88;4962133;28;45689;-77
2023/05/12 03:47:45;;;;;;;;;6.33;4.00;;;;;13.65;59.00;101164.84;4960763;28;45437;-76
2023/05/12 03:50:11;;;;;;;;;6.33;6.33;;;;;13.72;59.24;101181.06;4961634;28;45225;-77
2023/05/12 03:52:37;;;;;;;;;7.67;4.67;;;;;13.84;59.49;101189.72;4961311;28;45314;-77
2023/05/12 03:55:04;;;;;;;;;7.33;4.67;;;;;13.91;59.23;101194.28;4960938;28;45996;-75
2023/05/12 03:57:30;;;;;;;;;6.00;4.67;;;;;13.80;59.38;101190.97;4960442;28;45329;-75
2023/05/12 03:59:55;;;;;;;;;4.00;3.33;;;;;13.72;59.27;101188.25;4961037;28;45268;-76
2023/05/12 04:02:20;;;;;;;;;4.33;3.67;;;;;13.28;59.22;101105.38;4943408;28;45594;-76
2023/05/12 04:04:46;;;;;;;;;4.67;3.67;;;;;13.57;59.78;101156.72;4960840;28;46447;-76
2023/05/12 04:07:11;;;;;;;;;3.67;3.67;;;;;13.76;59.36;101195.81;4943113;28;45498;-78
2023/05/12 04:09:37;;;;;;;;;2.33;2.33;;;;;13.67;59.46;101186.03;4943862;28;45350;-76
2023/05/12 04:12:02;;;;;;;;;5.00;5.00;;;;;13.68;59.47;101183.22;4960640;28;45296;-76
2023/05/12 04:14:27;;;;;;;;;6.67;5.00;;;;;13.77;59.47;101210.00;4943273;28;48264;-77
2023/05/12 04:16:53;;;;;;;;;5.33;3.67;;;;;13.43;59.13;101151.94;4960792;28;45315;-78
2023/05/12 04:19:18;;;;;;;;;5.67;4.00;;;;;13.76;59.09;101202.97;4960057;28;55747;-77
2023/05/12 04:21:43;;;;;;;;;4.33;2.67;;;;;13.45;58.92;101160.63;4960788;28;45473;-78
2023/05/12 04:24:09;;;;;;;;;3.33;3.33;;;;;13.67;58.98;101189.56;4942974;28;47503;-76
2023/05/12 04:26:34;;;;;;;;;6.67;4.00;;;;;13.67;58.60;101189.56;4942981;28;45492;-77
2023/05/12 04:29:00;;;;;;;;;4.00;4.00;;;;;13.50;58.90;101163.69;4960351;28;45249;-78
2023/05/12 04:31:25;;;;;;;;;6.67;4.33;;;;;13.74;58.47;101202.28;4943269;28;45317;-78
2023/05/12 04:33:50;;;;;;;;;5.00;4.00;;;;;13.48;58.19;101160.31;4942297;28;48299;-77
2023/05/12 04:36:16;;;;;;;;;3.67;3.00;;;;;13.58;58.64;101179.78;4960410;28;45398;-77
2023/05/12 04:38:41;;;;;;;;;3.33;3.33;;;;;13.79;58.33;101210.69;4960858;28;45227;-77
2023/05/12 04:41:07;;;;;;;;;3.67;2.33;;;;;13.53;57.76;101174.06;4943677;28;45317;-78
2023/05/12 04:43:33;;;;;;;;;3.00;3.00;;;;;13.80;57.63;101212.38;4960051;28;45708;-77
2023/05/12 04:45:58;;;;;;;;;5.33;3.67;;;;;13.19;57.36;101120.47;4959984;28;45315;-76
2023/05/12 04:48:23;;;;;;;;;4.33;3.33;;;;;13.65;57.21;101188.88;4960315;28;45237;-77
2023/05/12 04:50:49;;;;;;;;;6.00;3.00;;;;;13.73;55.98;101206.81;4962178;28;45308;-78
2023/05/12 04:53:15;;;;;;;;;2.33;2.33;;;;;13.65;55.93;101183.53;4943020;28;47325;-77
2023/05/12 04:55:41;;;;;;;;;4.00;4.00;;;;;13.54;55.41;101170.38;4960113;28;45268;-77
2023/05/12 04:58:07;;;;;;;;;4.00;3.00;;;;;13.76;55.01;101195.81;4942447;28;45376;-76
2023/05/12 05:00:33;;;;;;;;;3.33;2.33;;;;;13.97;54.41;101222.22;4960268;28;45304;-76
2023/05/12 05:02:58;;;;;;;;;2.33;2.33;;;;;13.70;53.69;101175.88;4942490;28;48285;-76
2023/05/12 05:05:23;;;;;;;;;1.67;1.67;;;;;13.93;51.80;101215.50;4959959;28;45497;-76
2023/05/12 05:07:49;;;;;;;;;1.67;1.67;;;;;14.04;51.62;101222.44;4942326;28;54741;-79
2023/05/12 05:10:14;;;;;;;;;1.00;0.67;;;;;14.05;51.18;101227.63;4960488;28;45145;-77
2023/05/12 05:12:39;;;;;;;;;3.67;2.00;;;;;13.98;50.37;101222.06;4959421;28;46002;-78
2023/05/12 05:15:06;;;;;;;;;0.00;0.00;;;;;14.00;50.58;101213.88;4960007;28;45517;-77
2023/05/12 05:17:32;;;;;;;;;2.00;2.00;;;;;14.05;50.79;101211.59;4942126;28;45397;-77
2023/05/12 05:19:57;;;;;;;;;1.67;1.67;;;;;14.08;50.82;101221.97;4960058;28;45534;-78
2023/05/12 05:22:23;;;;;;;;;2.33;1.67;;;;;14.21;50.87;101233.09;4940175;28;47782;-78
2023/05/12 05:24:48;;;;;;;;;2.33;2.33;;;;;14.33;50.53;101244.41;4957069;28;45542;-77
2023/05/12 05:27:13;;;;;;;;;2.67;2.33;;;;;14.34;50.97;101231.84;4963416;28;45199;-78
2023/05/12 05:29:39;;;;;;;;;2.33;2.33;;;;;14.43;50.16;101241.63;4949404;28;45610;-77
2023/05/12 05:32:04;;;;;;;;;6.00;4.67;;;;;14.37;50.70;101221.69;4943628;28;48118;-78
2023/05/12 05:34:30;;;;;;;;;6.33;4.67;;;;;14.49;50.62;101233.00;4959632;28;45338;-77
2023/05/12 05:36:55;;;;;;;;;3.33;3.33;;;;;14.58;49.92;101232.03;4959408;28;52605;-77
2023/05/12 05:39:21;;;;;;;;;2.00;2.00;;;;;14.49;49.94;101231.16;4941986;28;45441;-75
2023/05/12 05:41:46;;;;;;;;;3.00;2.00;;;;;14.46;50.33;101225.28;4957948;28;45864;-76
2023/05/12 05:44:12;;;;;;;;;8.00;8.00;;;;;14.47;49.71;101211.75;4948471;28;46072;-77
2023/05/12 05:46:37;;;;;;;;;4.67;3.00;;;;;14.72;50.19;101247.53;4938631;28;45474;-75
2023/05/12 05:49:02;;;;;;;;;2.67;2.00;;;;;14.67;49.71;101233.78;4941787;28;45474;-78
2023/05/12 05:51:28;;;;;;;;;6.67;6.67;;;;;14.70;49.60;101227.28;4940339;28;47516;-76
2023/05/12 05:53:53;;;;;;;;;4.67;2.00;;;;;14.90;49.79;101248.28;4943641;28;45475;-78
2023/05/12 05:56:18;;;;;;;;;4.67;4.00;;;;;15.02;49.37;101256.91;4960864;28;45648;-80
2023/05/12 05:58:45;;;;;;;;;6.67;4.33;;;;;15.12;49.39;101248.72;4941969;28;46328;-78
2023/05/12 06:01:10;;;;;;;;;4.00;4.00;;;;;15.23;48.95;101250.28;4941613;28;48018;-79
2023/05/12 06:03:35;;;;;;;;;4.00;3.00;;;;;15.40;48.83;101260.03;4942041;28;45460;-79
2023/05/12 06:06:01;;;;;;;;;6.67;6.00;;;;;15.46;48.82;101256.72;4942971;28;45392;-78
2023/05/12 06:08:26;;;;;;;;;2.00;2.00;;;;;15.45;48.17;101255.03;4942051;28;45308;-78
2023/05/12 06:10:52;;;;;;;;;2.00;2.00;;;;;15.37;48.04;101212.13;4959321;28;49133;-78
2023/05/12 06:13:17;;;;;;;;;2.00;2.00;;;;;15.45;47.40;101245.16;4941023;28;45177;-77
2023/05/12 06:15:43;;;;;;;;;5.67;4.00;;;;;15.39;48.29;101245.78;4959024;28;45308;-78
2023/05/12 06:18:08;;;;;;;;;3.00;3.00;;;;;15.38;48.29;101238.75;4940958;28;45550;-75
2023/05/12 06:20:34;;;;;;;;;3.00;3.00;;;;;14.69;47.89;101135.44;4940959;28;47751;-76
2023/05/12 06:22:59;;;;;;;;;3.00;3.00;;;;;15.24;47.64;101242.09;4951428;28;45316;-74
2023/05/12 06:25:25;;;;;;;;;6.00;5.00;;;;;15.30;48.06;101246.78;4949346;28;45765;-75
2023/05/12 06:27:51;;;;;;;;;1.00;1.00;;;;;14.90;48.32;101170.66;4958829;28;45488;-75
2023/05/12 06:30:17;;;;;;;;;4.00;4.00;;;;;15.49;48.43;101254.53;4958609;28;45419;-75
2023/05/12 06:32:42;;;;;;;;;5.67;3.67;;;;;15.55;47.25;101247.69;4940859;28;45282;-75
2023/05/12 06:35:08;;;;;;;;;3.00;3.00;;;;;15.59;47.48;101243.69;4958359;28;45431;-77
2023/05/12 06:37:34;;;;;;;;;11.67;7.33;;;;;15.71;47.42;101236.19;4954966;28;45793;-71
2023/05/12 06:39:59;;;;;;;;;7.67;4.00;;;;;15.88;46.71;101251.31;4950355;28;45951;-73
2023/05/12 06:42:25;;;;;;;;;4.67;3.67;;;;;15.35;47.28;101153.34;4956176;28;45349;-75
2023/05/12 06:44:50;;;;;;;;;4.00;4.00;;;;;15.88;47.16;101218.28;4928411;28;45399;-75
2023/05/12 06:47:16;;;;;;;;;11.00;8.33;;;;;15.48;47.23;101134.97;4935073;28;45515;-76
2023/05/12 06:49:41;;;;;;;;;6.33;5.67;;;;;15.33;46.84;101091.06;4947560;28;46454;-76
2023/05/12 06:52:06;;;;;;;;;7.67;5.33;;;;;16.48;46.68;101225.97;4944469;28;46009;-75
2023/05/12 06:54:32;;;;;;;;;2.33;2.33;;;;;16.77;45.27;101225.41;4940570;28;45432;-78
2023/05/12 06:56:58;;;;;;;;;5.00;5.00;;;;;17.38;45.22;101231.84;4951576;28;45795;-74
2023/05/12 06:59:23;;;;;;;;;2.00;2.00;;;;;17.98;44.87;101252.66;4946972;28;45513;-74
2023/05/12 07:01:48;;;;;;;;;3.00;3.00;;;;;18.39;43.18;101239.69;4940337;28;45418;-74
2023/05/12 07:04:14;;;;;;;;;5.00;5.00;;;;;18.71;42.78;101217.03;4939517;28;45575;-75
2023/05/12 07:06:39;;;;;;;;;4.50;3.50;;;;;19.44;41.08;101252.00;4957136;28;45452;-74
2023/05/12 07:09:04;;;;;;;;;5.00;4.00;;;;;19.92;40.63;101243.38;4940692;28;45631;-75
2023/05/12 07:11:31;;;;;;;;;2.67;2.33;;;;;20.57;38.91;101231.47;4936767;28;46295;-75
2023/05/12 07:13:56;;;;;;;;;5.00;3.67;;;;;21.25;38.08;101241.47;4939904;28;45384;-73
2023/05/12 07:16:21;;;;;;;;;8.00;7.00;;;;;22.01;37.07;101243.91;4934604;28;45612;-74
2023/05/12 07:18:47;;;;;;;;;4.00;4.00;;;;;22.61;35.85;101220.38;4960539;28;45902;-74
2023/05/12 07:21:12;;;;;;;;;3.50;2.25;;;;;23.27;34.50;101220.22;4957742;28;45414;-74
2023/05/12 07:23:38;;;;;;;;;8.00;4.00;;;;;23.72;33.28;101239.19;4933439;28;45436;-76
2023/05/12 07:26:05;;;;;;;;;5.00;5.00;;;;;23.98;33.58;101244.44;4933157;28;45445;-76
2023/05/12 07:28:35;;;;;;;;;6.00;4.00;;;;;23.92;32.93;101176.59;4946491;28;48656;-74
2023/05/12 07:31:01;;;;;;;;;5.25;5.25;;;;;24.51;32.88;101235.03;4964379;28;45556;-76
2023/05/12 07:33:27;;;;;;;;;6.25;5.75;;;;;24.91;31.91;101231.91;4950355;28;45537;-75
2023/05/12 07:35:52;;;;;;;;;4.00;4.00;;;;;25.09;31.00;101224.59;4949666;28;45536;-74
2023/05/12 07:38:18;;;;;;;;;4.75;4.25;;;;;25.09;31.13;101181.06;4951147;28;46568;-77
2023/05/12 07:40:43;;;;;;;;;6.33;5.67;;;;;25.54;31.09;101232.38;4934707;28;46162;-72
2023/05/12 07:43:09;;;;;;;;;4.00;4.00;;;;;25.49;30.53;101218.63;4953831;28;45558;-74
2023/05/12 07:45:35;;;;;;;;;4.25;4.25;;;;;25.54;30.71;101226.94;4939772;28;45551;-74
2023/05/12 07:48:00;;;;;;;;;7.00;4.67;;;;;25.13;30.41;101198.59;4943363;28;46338;-82
2023/05/12 07:50:26;;;;;;;;;4.25;4.25;;;;;25.28;30.59;101216.41;4935105;28;45472;-77
2023/05/12 07:52:52;;;;;;;;;4.00;2.75;;;;;25.27;30.85;101228.38;4955503;28;45373;-76
2023/05/12 07:55:20;;;;;;;;;2.00;1.25;;;;;24.56;30.83;101169.94;4946481;28;45582;-77
2023/05/12 07:57:46;;;;;;;;;20.33;17.33;;;;;24.58;31.41;101209.44;4947267;28;46819;-75
2023/05/12 08:00:12;;;;;;;;;5.00;4.00;;;;;24.45;31.83;101185.13;4950465;28;45799;-77
2023/05/12 08:02:38;;;;;;;;;2.75;2.50;;;;;24.39;32.28;101213.19;4963716;28;45363;-77
2023/05/12 08:05:04;;;;;;;;;2.75;2.75;;;;;23.93;32.73;101225.25;4938277;28;45361;-76
2023/05/12 08:07:29;;;;;;;;;3.00;2.75;;;;;23.62;33.13;101214.38;4944102;28;46355;-75
2023/05/12 08:09:54;;;;;;;;;4.75;3.75;;;;;23.55;33.55;101236.13;4961091;28;45521;-76
2023/05/12 08:12:20;;;;;;;;;3.00;3.00;;;;;23.49;33.88;101233.47;4958557;28;45383;-75
2023/05/12 08:14:45;;;;;;;;;3.75;3.25;;;;;22.51;34.67;101144.13;4937741;28;45378;-76
2023/05/12 08:17:11;;;;;;;;;5.75;4.50;;;;;22.59;35.13;101200.78;4944069;28;47758;-77
2023/05/12 08:19:36;;;;;;;;;4.00;4.00;;;;;22.66;35.94;101228.72;4942826;28;45473;-75
2023/05/12 08:22:02;;;;;;;;;3.25;3.25;;;;;22.62;35.60;101203.06;4961432;28;45324;-78
2023/05/12 08:24:27;;;;;;;;;6.50;5.25;;;;;22.66;35.99;101223.31;4936134;28;45531;-82
2023/05/12 08:26:53;;;;;;;;;5.75;5.75;;;;;22.05;36.52;101131.50;4948988;28;45573;-76
2023/05/12 08:29:18;;;;;;;;;6.25;6.25;;;;;22.38;36.59;101215.41;4954357;28;47295;-77
2023/05/12 08:31:43;;;;;;;;;4.25;4.25;;;;;22.24;36.89;101240.03;4939593;28;45503;-77
2023/05/12 08:34:09;;;;;;;;;4.75;3.25;;;;;21.72;37.69;101234.31;4940305;28;45602;-78
2023/05/12 08:36:34;;;;;;;;;4.00;3.75;;;;;20.79;39.81;101216.84;4949282;28;48634;-76
2023/05/12 08:39:01;;;;;;;;;3.00;3.00;;;;;20.71;40.50;101237.81;4953039;28;46042;-77
2023/05/12 08:41:42;;;;;;;;;5.00;4.75;;;;;20.33;41.45;101240.84;4958146;28;45545;-76
2023/05/12 08:44:07;;;;;;;;;5.00;3.25;;;;;19.95;42.25;101221.41;4943271;28;45563;-79
2023/05/12 08:46:34;;;;;;;;;7.00;6.00;;;;;19.75;43.96;101251.72;4939577;28;47743;-78
2023/05/12 08:49:02;;;;;;;;;6.25;5.75;;;;;19.43;45.91;101252.19;4937479;28;45973;-77
2023/05/12 08:51:31;;;;;;;;;5.00;4.00;;;;;19.43;46.24;101261.09;4941449;28;45657;-76
2023/05/12 08:53:56;;;;;;;;;4.33;4.33;;;;;19.15;46.45;101227.78;4938642;28;45578;-76
2023/05/12 08:56:23;;;;;;;;;4.00;4.00;;;;;19.05;47.41;101251.50;4942094;28;47801;-77
2023/05/12 08:58:48;;;;;;;;;8.33;4.00;;;;;18.39;47.96;101202.84;4948846;28;45616;-76
2023/05/12 09:01:16;;;;;;;;;8.00;6.33;;;;;18.62;49.45;101255.78;4926931;28;45284;-77
2023/05/12 09:03:41;;;;;;;;;5.67;5.67;;;;;18.38;49.84;101263.09;4953612;28;45598;-78
2023/05/12 09:06:09;;;;;;;;;11.33;6.33;;;;;18.06;51.08;101252.63;4959624;28;45252;-77
2023/05/12 09:08:36;;;;;;;;;7.33;5.33;;;;;17.72;52.18;101240.41;4941155;28;46537;-79
2023/05/12 09:11:02;;;;;;;;;6.67;6.67;;;;;17.60;53.32;101261.47;4923039;28;45373;-81
2023/05/12 09:13:39;;;;;;;;;9.33;9.33;;;;;17.36;54.16;101252.69;4941468;28;45457;-79
2023/05/12 09:16:10;;;;;;;;;6.67;5.67;;;;;17.20;54.94;101254.44;4927138;28;48329;-76
2023/05/12 09:18:54;;;;;;;;;10.00;9.00;;;;;16.98;55.51;101236.41;4938279;28;46177;-73
2023/05/12 09:21:20;;;;;;;;;14.00;12.33;;;;;17.13;55.91;101268.75;4957920;28;45543;-73
2023/05/12 09:23:58;;;;;;;;;13.00;10.00;;;;;17.09;56.05;101270.97;4955148;28;45350;-74
2023/05/12 09:26:26;;;;;;;;;9.67;8.67;;;;;16.84;57.32;101239.84;4940967;28;47544;-76
2023/05/12 09:28:53;;;;;;;;;15.00;8.33;;;;;16.93;56.77;101254.91;4929394;28;45570;-74
2023/05/12 09:31:23;;;;;;;;;10.33;9.33;;;;;16.90;58.08;101255.25;4939842;28;45276;-75
2023/05/12 09:33:50;;;;;;;;;9.00;9.00;;;;;16.86;58.49;101262.81;4945846;28;45696;-75
2023/05/12 09:36:24;;;;;;;;;8.33;8.33;;;;;16.87;59.56;101277.09;4941512;28;47894;-74
2023/05/12 09:39:04;;;;;;;;;12.00;11.33;;;;;16.74;59.68;101277.59;4940443;28;45385;-75
2023/05/12 09:41:30;;;;;;;;;9.67;8.00;;;;;16.57;60.46;101268.72;4959165;28;45245;-76
2023/05/12 09:43:58;;;;;;;;;9.33;6.67;;;;;16.52;61.50;101281.81;4949576;28;45531;-74
2023/05/12 09:46:23;;;;;;;;;12.00;12.00;;;;;16.38;61.30;101274.44;4939233;28;47943;-76
2023/05/12 09:48:49;;;;;;;;;12.00;10.67;;;;;16.44;61.17;101279.16;4953612;28;45563;-76
2023/05/12 09:51:17;;;;;;;;;12.00;11.00;;;;;16.32;61.22;101269.75;4956065;28;45739;-75
2023/05/12 09:53:45;;;;;;;;;12.67;10.33;;;;;16.27;61.91;101266.75;4935041;28;45502;-77
2023/05/12 09:56:12;;;;;;;;;9.33;9.33;;;;;16.17;61.28;101239.22;4956701;28;45858;-79
2023/05/12 09:58:42;;;;;;;;;11.67;10.67;;;;;16.53;62.74;101264.69;4948905;28;45470;-79
2023/05/12 10:01:11;;;;;;;;;11.33;7.00;;;;;16.70;60.68;101269.06;4951086;28;45407;-78
2023/05/12 10:03:38;;;;;;;;;13.00;7.00;;;;;16.58;60.42;101243.53;4952223;28;45521;-77
2023/05/12 10:06:06;;;;;;;;;11.67;11.67;;;;;16.74;59.98;101269.56;4941260;28;48428;-78
2023/05/12 10:08:49;;;;;;;;;12.00;9.67;;;;;16.86;59.81;101270.03;4950444;28;45339;-76
2023/05/12 10:11:15;;;;;;;;;8.67;7.67;;;;;16.91;60.49;101267.66;4939303;28;45576;-75
2023/05/12 10:13:42;;;;;;;;;7.33;7.33;;;;;16.85;59.27;101263.81;4949552;28;45365;-77
2023/05/12 10:16:08;;;;;;;;;9.00;7.67;;;;;16.71;59.46;101243.06;4925399;28;48646;-76
2023/05/12 10:18:34;;;;;;;;;12.67;11.33;;;;;16.89;60.52;101277.75;4933500;28;45561;-75
2023/05/12 10:21:01;;;;;;;;;8.33;7.00;;;;;17.00;59.32;101269.31;4922068;28;45376;-78
2023/05/12 10:23:27;;;;;;;;;13.33;13.33;;;;;16.94;59.72;101245.81;4938964;28;45509;-75
2023/05/12 10:26:00;;;;;;;;;12.00;8.33;;;;;17.13;59.95;101264.22;4951559;28;45476;-78
2023/05/12 10:28:26;;;;;;;;;9.00;8.67;;;;;17.12;59.21;101267.94;4935929;28;45912;-77
2023/05/12 10:30:52;;;;;;;;;9.33;7.33;;;;;17.00;59.38;101269.31;4937863;28;45551;-80
2023/05/12 10:33:18;;;;;;;;;7.00;6.00;;;;;16.88;58.92;101270.69;4950732;28;45539;-78
2023/05/12 10:35:44;;;;;;;;;15.00;12.33;;;;;16.89;59.65;101257.09;4938884;28;47029;-78
2023/05/12 10:38:11;;;;;;;;;16.33;14.00;;;;;16.93;60.18;101249.53;4938395;28;45483;-77
2023/05/12 10:40:59;;;;;;;;;11.67;10.67;;;;;16.72;60.13;101234.81;4940506;28;45346;-78
2023/05/12 10:43:27;;;;;;;;;10.33;8.33;;;;;16.88;58.23;101270.69;4950413;28;45467;-76
2023/05/12 10:46:11;;;;;;;;;10.33;6.33;;;;;16.82;58.59;101268.69;4959534;28;46722;-75
2023/05/12 10:48:50;;;;;;;;;9.00;7.67;;;;;16.61;58.76;101253.94;4955883;28;45592;-81
2023/05/12 10:51:21;;;;;;;;;11.67;9.00;;;;;16.20;59.56;101206.69;4939900;28;45483;-77
2023/05/12 10:53:50;;;;;;;;;19.67;16.33;;;;;16.71;60.05;101268.06;4944974;28;45592;-77
2023/05/12 10:56:22;;;;;;;;;18.33;18.33;;;;;16.39;60.44;101200.97;4956922;28;46650;-77
2023/05/12 10:59:21;;;;;;;;;11.00;10.33;;;;;16.76;60.29;101253.25;4943203;28;45500;-79
2023/05/12 11:01:59;;;;;;;;;10.00;9.00;;;;;16.86;59.55;101257.44;4937389;28;45689;-76
2023/05/12 11:04:55;;;;;;;;;14.67;13.33;;;;;16.94;60.55;101264.63;4932719;28;45423;-78
2023/05/12 11:07:25;;;;;;;;;11.67;7.67;;;;;16.78;58.22;101240.50;4936304;28;48212;-77
2023/05/12 11:09:51;;;;;;;;;9.67;8.67;;;;;16.66;58.99;101216.72;4940506;28;45634;-78
2023/05/12 11:12:17;;;;;;;;;13.33;11.67;;;;;17.09;59.77;101262.06;4939574;28;45350;-76
2023/05/12 11:14:44;;;;;;;;;5.00;5.00;;;;;17.06;58.03;101268.63;4927127;28;45361;-75
2023/05/12 11:17:10;;;;;;;;;15.00;13.33;;;;;17.03;58.33;101250.19;4938970;28;45363;-79
2023/05/12 11:19:37;;;;;;;;;6.33;6.33;;;;;17.00;57.97;101262.06;4935568;28;45758;-76
2023/05/12 11:22:10;;;;;;;;;10.33;8.67;;;;;17.03;57.51;101258.25;4957319;28;45360;-78